South Bowie, Maryland
Current Conditions -  °F | °C
As of 7:12 AM on Friday 21 Nov 2014 (Local Time) from KFME Reporting Station
Clear Clear  
Wind Chill: 27°   Ceiling: Unl
Heat Index: 27°   Visibility: 10mi
Dew Point: 10°   Wind: 3mph
Humidity: 51%   Direction: 290°WNW
Pressure: 30.37"   Gusts: NA
Location:  38.927°N, 76.7149°W
Report Text: KFME 211212Z AUTO 29003KT 10SM CLR M03/M12 A3037 RMK AO1
Loading
Personal Weather Stations






























Interactive Weather Map New forecast layout! Learn more

10-Day Weather Forecast

Advertisements
Track Severe Weather on mobile